Altamont, New York
Current Conditions -  °F | °C
As of 12:51 PM on Tuesday 21 Oct 2014 (Local Time) from KALB Reporting Station
Light Rain Light Rain  
Wind Chill: 52°   Ceiling: 5500
Heat Index: 52°   Visibility: 5mi
Dew Point: 49°   Wind: 0mph
Humidity: 89%   Direction: NA
Pressure: 29.92"   Gusts: NA
Location:  42.7°N, 74.03°W
Report Text: KALB 211651Z 00000KT 5SM -RA BR SCT006 BKN055 OVC080 11/09 A2992 RMK AO2 SLP133 VIS NW-NE 2 1/2 BINOVC P0001 T01110094 $
Loading
Personal Weather Stations






























Interactive Weather Map New forecast layout! Learn more

10-Day Weather Forecast

Advertisements
Track Severe Weather on mobile